Time;durP1;ratioP1;P1;durP2;ratioP2;P2;SDS_P1;SDS_P2;PMS_P1;PMS_P2;Temp;Humidity;BMP_temperature;BMP_pressure;BME280_temperature;BME280_humidity;BME280_pressure;Samples;Min_cycle;Max_cycle;Signal;HPM_P1;HPM_P2
2022/03/12 00:01:26;;;;;;;23.75;7.43;;;;;;;;;;5071516;28;20208;-68
2022/03/12 00:03:54;;;;;;;16.88;4.90;;;;;;;;;;5071344;28;20215;-67
2022/03/12 00:06:23;;;;;;;26.08;7.18;;;;;;;;;;5070947;28;20244;-67
2022/03/12 00:08:53;;;;;;;23.73;4.55;;;;;;;;;;5071292;28;20240;-68
2022/03/12 00:11:21;;;;;;;18.25;3.53;;;;;;;;;;5071179;28;20232;-67
2022/03/12 00:13:49;;;;;;;17.98;3.17;;;;;;;;;;5071139;28;20210;-67
2022/03/12 00:16:18;;;;;;;17.40;3.55;;;;;;;;;;5071023;28;20673;-68
2022/03/12 00:18:52;;;;;;;15.70;3.40;;;;;;;;;;5070983;28;20212;-67
2022/03/12 00:21:22;;;;;;;15.40;3.15;;;;;;;;;;5070878;28;20208;-68
2022/03/12 00:23:50;;;;;;;16.27;3.72;;;;;;;;;;5071027;28;20231;-68
2022/03/12 00:26:20;;;;;;;14.30;3.53;;;;;;;;;;5070990;28;20742;-67
2022/03/12 00:28:47;;;;;;;18.58;3.65;;;;;;;;;;5070801;28;20211;-67
2022/03/12 00:31:15;;;;;;;14.48;3.97;;;;;;;;;;5070494;28;20714;-69
2022/03/12 00:33:43;;;;;;;17.33;3.78;;;;;;;;;;5070846;28;20307;-68
2022/03/12 00:36:12;;;;;;;13.93;3.08;;;;;;;;;;5071102;28;20274;-67
2022/03/12 00:38:40;;;;;;;22.00;5.22;;;;;;;;;;5064342;28;20212;-67
2022/03/12 00:41:08;;;;;;;18.98;4.00;;;;;;;;;;5070445;28;20212;-67
2022/03/12 00:43:36;;;;;;;15.70;3.17;;;;;;;;;;5070535;28;20676;-67
2022/03/12 00:46:05;;;;;;;19.88;4.97;;;;;;;;;;5070637;28;20239;-67
2022/03/12 00:48:32;;;;;;;18.45;3.15;;;;;;;;;;5071128;28;20678;-67
2022/03/12 00:51:00;;;;;;;14.50;3.20;;;;;;;;;;5070282;28;20212;-67
2022/03/12 00:53:29;;;;;;;16.33;4.63;;;;;;;;;;5070649;28;20648;-67
2022/03/12 00:55:56;;;;;;;17.92;4.38;;;;;;;;;;5070449;28;20262;-67
2022/03/12 00:58:24;;;;;;;21.10;3.50;;;;;;;;;;5070420;28;20597;-67
2022/03/12 01:00:55;;;;;;;18.10;4.45;;;;;;;;;;5070625;28;20219;-67
2022/03/12 01:03:23;;;;;;;19.33;4.22;;;;;;;;;;5070698;28;20220;-68
2022/03/12 01:05:58;;;;;;;21.23;4.63;;;;;;;;;;5070324;28;20338;-68
2022/03/12 01:08:27;;;;;;;64.93;19.17;;;;;;;;;;5070297;28;20200;-69
2022/03/12 01:10:58;;;;;;;45.63;14.05;;;;;;;;;;5070135;28;20214;-68
2022/03/12 01:13:26;;;;;;;30.92;6.80;;;;;;;;;;5070614;28;20208;-67
2022/03/12 01:15:53;;;;;;;25.42;6.45;;;;;;;;;;5070773;28;20208;-68
2022/03/12 01:18:22;;;;;;;21.25;5.97;;;;;;;;;;5070362;28;20215;-67
2022/03/12 01:20:50;;;;;;;23.02;7.63;;;;;;;;;;5070313;28;20204;-68
2022/03/12 01:23:18;;;;;;;24.80;6.72;;;;;;;;;;5070077;28;20200;-69
2022/03/12 01:25:47;;;;;;;22.50;6.00;;;;;;;;;;5070233;28;20658;-67
2022/03/12 01:28:17;;;;;;;18.67;5.50;;;;;;;;;;5070529;28;20287;-68
2022/03/12 01:30:44;;;;;;;16.33;4.45;;;;;;;;;;5070146;28;20269;-68
2022/03/12 01:33:12;;;;;;;20.30;4.00;;;;;;;;;;5070817;28;20224;-67
2022/03/12 01:35:40;;;;;;;17.92;4.07;;;;;;;;;;5074364;28;20295;-67
2022/03/12 01:38:08;;;;;;;18.85;4.00;;;;;;;;;;5074022;28;20665;-67
2022/03/12 01:40:36;;;;;;;20.95;5.63;;;;;;;;;;5074051;28;20607;-67
2022/03/12 01:43:03;;;;;;;18.25;4.05;;;;;;;;;;5074089;28;20349;-68
2022/03/12 01:45:33;;;;;;;14.82;3.00;;;;;;;;;;5074235;28;20297;-67
2022/03/12 01:48:01;;;;;;;16.83;2.65;;;;;;;;;;5074312;28;20729;-67
2022/03/12 01:50:31;;;;;;;17.75;3.05;;;;;;;;;;5073949;28;20270;-67
2022/03/12 01:53:01;;;;;;;22.52;4.72;;;;;;;;;;5073947;28;20235;-67
2022/03/12 01:55:30;;;;;;;16.40;2.58;;;;;;;;;;5073816;28;20211;-67
2022/03/12 01:57:58;;;;;;;16.83;3.03;;;;;;;;;;5073910;28;20217;-67
2022/03/12 02:00:27;;;;;;;14.90;1.98;;;;;;;;;;5073801;28;20204;-67
2022/03/12 02:02:56;;;;;;;15.00;2.35;;;;;;;;;;5073674;28;20219;-67
2022/03/12 02:05:27;;;;;;;13.68;2.30;;;;;;;;;;5073157;28;20244;-67
2022/03/12 02:07:56;;;;;;;21.80;3.70;;;;;;;;;;5073609;28;20209;-67
2022/03/12 02:10:26;;;;;;;16.67;3.58;;;;;;;;;;5073607;28;20211;-67
2022/03/12 02:12:53;;;;;;;26.55;4.90;;;;;;;;;;5073353;28;20233;-67
2022/03/12 02:15:22;;;;;;;20.83;3.45;;;;;;;;;;5073358;28;20205;-68
2022/03/12 02:17:50;;;;;;;18.45;4.30;;;;;;;;;;5073423;28;20666;-68
2022/03/12 02:20:20;;;;;;;19.52;3.33;;;;;;;;;;5073324;28;20211;-67
2022/03/12 02:22:53;;;;;;;24.52;6.22;;;;;;;;;;5073597;28;20605;-67
2022/03/12 02:25:27;;;;;;;13.70;2.15;;;;;;;;;;5073620;28;20215;-67
2022/03/12 02:27:55;;;;;;;22.02;3.92;;;;;;;;;;5073182;28;20250;-67
2022/03/12 02:30:23;;;;;;;19.83;2.80;;;;;;;;;;5073316;28;20594;-68
2022/03/12 02:32:58;;;;;;;20.35;3.90;;;;;;;;;;5073246;28;20228;-67
2022/03/12 02:35:34;;;;;;;20.75;3.15;;;;;;;;;;5073115;28;20201;-67
2022/03/12 02:38:01;;;;;;;18.05;2.70;;;;;;;;;;5073169;28;20681;-67
2022/03/12 02:40:30;;;;;;;14.63;3.33;;;;;;;;;;5072902;28;20266;-67
2022/03/12 02:42:58;;;;;;;20.85;5.65;;;;;;;;;;5073046;28;20217;-67
2022/03/12 02:45:29;;;;;;;19.27;4.63;;;;;;;;;;5072254;28;20291;-67
2022/03/12 02:47:56;;;;;;;17.38;3.67;;;;;;;;;;5073057;28;20330;-67
2022/03/12 02:50:24;;;;;;;16.05;4.53;;;;;;;;;;5072731;28;20685;-67
2022/03/12 02:52:52;;;;;;;13.80;2.83;;;;;;;;;;5072788;28;20232;-67
2022/03/12 02:55:21;;;;;;;18.38;3.40;;;;;;;;;;5072371;28;20208;-68
2022/03/12 02:57:50;;;;;;;24.27;5.72;;;;;;;;;;5072860;28;20236;-67
2022/03/12 03:00:19;;;;;;;22.80;4.38;;;;;;;;;;5072854;28;20296;-67
2022/03/12 03:02:52;;;;;;;17.88;3.08;;;;;;;;;;5072505;28;20209;-67
2022/03/12 03:05:31;;;;;;;17.35;3.85;;;;;;;;;;5072367;28;20236;-67
2022/03/12 03:08:03;;;;;;;16.50;4.15;;;;;;;;;;5072705;28;20205;-67
2022/03/12 03:10:34;;;;;;;27.17;5.63;;;;;;;;;;5072645;28;20665;-67
2022/03/12 03:13:16;;;;;;;18.38;4.18;;;;;;;;;;5071909;28;20701;-67
2022/03/12 03:15:46;;;;;;;18.98;3.95;;;;;;;;;;5072296;28;20212;-67
2022/03/12 03:18:15;;;;;;;20.80;5.10;;;;;;;;;;5072451;28;20208;-67
2022/03/12 03:20:43;;;;;;;18.63;4.95;;;;;;;;;;5072280;28;20212;-68
2022/03/12 03:23:11;;;;;;;23.50;5.55;;;;;;;;;;5071988;28;20684;-67
2022/03/12 03:25:39;;;;;;;21.90;5.30;;;;;;;;;;5072287;28;20201;-67
2022/03/12 03:28:08;;;;;;;18.17;4.95;;;;;;;;;;5072280;28;20216;-67
2022/03/12 03:30:37;;;;;;;20.35;3.95;;;;;;;;;;5072195;28;20270;-67
2022/03/12 03:33:08;;;;;;;20.20;4.85;;;;;;;;;;5071895;28;20281;-68
2022/03/12 03:35:36;;;;;;;23.75;5.47;;;;;;;;;;5072175;28;20205;-67
2022/03/12 03:38:03;;;;;;;19.70;5.05;;;;;;;;;;5072074;28;20220;-68
2022/03/12 03:40:31;;;;;;;19.60;5.50;;;;;;;;;;5071906;28;20200;-67
2022/03/12 03:42:58;;;;;;;18.25;5.00;;;;;;;;;;5071616;28;20590;-71
2022/03/12 03:45:28;;;;;;;17.77;4.88;;;;;;;;;;5072054;28;20207;-68
2022/03/12 03:47:56;;;;;;;20.92;5.03;;;;;;;;;;5071825;28;20212;-67
2022/03/12 03:50:26;;;;;;;23.35;6.40;;;;;;;;;;5071613;28;20661;-67
2022/03/12 03:52:56;;;;;;;26.58;6.72;;;;;;;;;;5071406;28;20228;-68
2022/03/12 03:55:25;;;;;;;24.92;5.22;;;;;;;;;;5071413;28;20240;-69
2022/03/12 03:57:54;;;;;;;22.55;5.78;;;;;;;;;;5070377;28;20673;-68
2022/03/12 04:00:22;;;;;;;22.25;5.63;;;;;;;;;;5071487;28;20258;-67
2022/03/12 04:02:55;;;;;;;24.50;6.65;;;;;;;;;;5065033;28;20212;-67
2022/03/12 04:05:23;;;;;;;20.77;5.65;;;;;;;;;;5063995;28;20727;-68
2022/03/12 04:07:51;;;;;;;24.98;6.15;;;;;;;;;;5071419;28;20204;-68
2022/03/12 04:10:19;;;;;;;41.90;5.97;;;;;;;;;;5071117;28;20204;-67
2022/03/12 04:12:46;;;;;;;26.67;5.22;;;;;;;;;;5071120;28;20243;-67
2022/03/12 04:15:15;;;;;;;92.82;26.30;;;;;;;;;;5070829;28;20201;-68
2022/03/12 04:17:43;;;;;;;114.07;36.90;;;;;;;;;;5071009;28;20240;-67
2022/03/12 04:20:13;;;;;;;68.47;21.13;;;;;;;;;;5071088;28;20212;-67
2022/03/12 04:22:41;;;;;;;147.10;44.45;;;;;;;;;;5071258;28;20236;-67
2022/03/12 04:25:12;;;;;;;123.97;37.75;;;;;;;;;;5070894;28;20232;-67
2022/03/12 04:27:42;;;;;;;111.18;35.65;;;;;;;;;;5067173;28;20228;-68
2022/03/12 04:30:11;;;;;;;97.82;35.30;;;;;;;;;;5067340;28;20682;-69
2022/03/12 04:32:39;;;;;;;73.65;21.08;;;;;;;;;;5072983;28;20232;-67
2022/03/12 04:35:07;;;;;;;49.63;18.98;;;;;;;;;;5072689;28;20208;-68
2022/03/12 04:37:36;;;;;;;39.30;14.18;;;;;;;;;;5073269;28;20208;-67
2022/03/12 04:40:03;;;;;;;41.83;16.80;;;;;;;;;;5073464;28;20213;-68
2022/03/12 04:42:31;;;;;;;43.35;13.20;;;;;;;;;;5073183;28;20213;-67
2022/03/12 04:44:59;;;;;;;31.70;12.60;;;;;;;;;;5073315;28;20283;-72
2022/03/12 04:47:26;;;;;;;32.92;11.15;;;;;;;;;;5073232;28;20208;-69
2022/03/12 04:49:54;;;;;;;23.80;7.75;;;;;;;;;;5073053;28;20212;-67
2022/03/12 04:52:22;;;;;;;17.17;4.90;;;;;;;;;;5072627;28;20224;-67
2022/03/12 04:54:50;;;;;;;22.52;4.50;;;;;;;;;;5073102;28;20670;-67
2022/03/12 04:57:19;;;;;;;24.90;5.93;;;;;;;;;;5072818;28;20224;-67
2022/03/12 04:59:47;;;;;;;36.00;10.75;;;;;;;;;;5072568;28;20211;-67
2022/03/12 05:02:14;;;;;;;27.63;7.93;;;;;;;;;;5070863;28;20223;-67
2022/03/12 05:04:42;;;;;;;35.80;11.80;;;;;;;;;;5070425;28;20233;-67
2022/03/12 05:07:14;;;;;;;32.22;10.13;;;;;;;;;;5070332;28;20228;-67
2022/03/12 05:09:41;;;;;;;28.25;7.60;;;;;;;;;;5070077;28;20592;-67
2022/03/12 05:12:11;;;;;;;25.80;7.20;;;;;;;;;;5070190;28;20201;-68
2022/03/12 05:14:38;;;;;;;29.02;6.55;;;;;;;;;;5070329;28;20208;-68
2022/03/12 05:17:08;;;;;;;19.58;5.70;;;;;;;;;;5070372;28;20269;-68
2022/03/12 05:19:36;;;;;;;23.67;7.82;;;;;;;;;;5070586;28;20212;-68
2022/03/12 05:22:04;;;;;;;26.95;7.88;;;;;;;;;;5070508;28;20283;-67
2022/03/12 05:24:32;;;;;;;28.15;9.13;;;;;;;;;;5070358;28;20214;-67
2022/03/12 05:27:01;;;;;;;18.27;4.65;;;;;;;;;;5070937;28;20660;-68
2022/03/12 05:29:31;;;;;;;23.80;8.07;;;;;;;;;;5071681;28;20215;-67
2022/03/12 05:31:58;;;;;;;20.83;6.90;;;;;;;;;;5071613;28;20204;-67
2022/03/12 05:34:27;;;;;;;26.17;6.00;;;;;;;;;;5071139;28;20259;-67
2022/03/12 05:36:54;;;;;;;26.17;6.78;;;;;;;;;;5071108;28;20212;-69
2022/03/12 05:39:23;;;;;;;23.02;7.05;;;;;;;;;;5070861;28;20204;-67
2022/03/12 05:41:50;;;;;;;20.33;5.55;;;;;;;;;;5070342;28;20598;-68
2022/03/12 05:44:18;;;;;;;20.70;6.05;;;;;;;;;;5070921;28;20208;-67
2022/03/12 05:46:46;;;;;;;29.17;7.03;;;;;;;;;;5070442;28;20251;-68
2022/03/12 05:49:14;;;;;;;23.63;6.40;;;;;;;;;;5070101;28;20205;-68
2022/03/12 05:51:43;;;;;;;21.38;6.25;;;;;;;;;;5070160;28;20573;-67
2022/03/12 05:54:11;;;;;;;21.30;6.40;;;;;;;;;;5069868;28;20720;-68
2022/03/12 05:56:40;;;;;;;23.23;5.95;;;;;;;;;;5069896;28;20208;-68
2022/03/12 05:59:09;;;;;;;23.42;7.32;;;;;;;;;;5069620;28;20681;-67
2022/03/12 06:01:36;;;;;;;23.10;7.40;;;;;;;;;;5063314;28;20573;-67
2022/03/12 06:04:05;;;;;;;26.13;6.93;;;;;;;;;;5069913;28;20540;-68
2022/03/12 06:06:35;;;;;;;22.02;6.35;;;;;;;;;;5069804;28;20240;-68
2022/03/12 06:09:07;;;;;;;30.38;8.65;;;;;;;;;;5069575;28;20336;-67
2022/03/12 06:11:37;;;;;;;24.73;6.68;;;;;;;;;;5070001;28;20216;-68
2022/03/12 06:14:05;;;;;;;21.55;7.40;;;;;;;;;;5069909;28;20235;-68
2022/03/12 06:16:33;;;;;;;22.25;5.60;;;;;;;;;;5069829;28;20274;-68
2022/03/12 06:19:01;;;;;;;24.73;7.15;;;;;;;;;;5069649;28;20212;-68
2022/03/12 06:21:30;;;;;;;22.55;6.28;;;;;;;;;;5072243;28;20740;-67
2022/03/12 06:23:58;;;;;;;23.35;7.30;;;;;;;;;;5073387;28;20209;-67
2022/03/12 06:26:27;;;;;;;25.67;6.45;;;;;;;;;;5073472;28;20203;-68
2022/03/12 06:28:54;;;;;;;21.02;6.05;;;;;;;;;;5066561;28;20204;-68
2022/03/12 06:31:22;;;;;;;23.83;7.15;;;;;;;;;;5073245;28;20257;-67
2022/03/12 06:33:50;;;;;;;22.23;6.53;;;;;;;;;;5073062;28;20789;-68
2022/03/12 06:36:19;;;;;;;22.08;6.70;;;;;;;;;;5073412;28;20201;-67
2022/03/12 06:38:48;;;;;;;26.25;7.97;;;;;;;;;;5073311;28;20208;-67
2022/03/12 06:41:17;;;;;;;29.58;7.72;;;;;;;;;;5072720;28;20215;-68
2022/03/12 06:43:45;;;;;;;25.30;7.63;;;;;;;;;;5073082;28;20217;-70
2022/03/12 06:46:16;;;;;;;25.05;8.85;;;;;;;;;;5073099;28;20209;-69
2022/03/12 06:48:43;;;;;;;22.50;8.40;;;;;;;;;;5073301;28;20304;-70
2022/03/12 06:51:11;;;;;;;28.88;8.82;;;;;;;;;;5072624;28;20213;-70
2022/03/12 06:53:39;;;;;;;22.40;6.18;;;;;;;;;;5072846;28;20626;-67
2022/03/12 06:56:08;;;;;;;22.98;6.60;;;;;;;;;;5072747;28;20223;-68
2022/03/12 06:58:36;;;;;;;24.75;7.40;;;;;;;;;;5072651;28;20215;-68
2022/03/12 07:01:04;;;;;;;20.13;5.70;;;;;;;;;;5072299;28;20232;-67
2022/03/12 07:03:31;;;;;;;18.33;5.85;;;;;;;;;;5072931;28;20895;-68
2022/03/12 07:05:59;;;;;;;22.50;6.63;;;;;;;;;;5072370;28;20251;-67
2022/03/12 07:08:26;;;;;;;18.33;5.97;;;;;;;;;;5072450;28;20211;-68
2022/03/12 07:10:54;;;;;;;22.33;6.97;;;;;;;;;;5072649;28;20297;-68
2022/03/12 07:13:23;;;;;;;22.15;6.68;;;;;;;;;;5065606;28;20286;-67
2022/03/12 07:15:51;;;;;;;22.48;8.20;;;;;;;;;;5072301;28;20212;-68
2022/03/12 07:18:20;;;;;;;25.58;7.10;;;;;;;;;;5072585;28;20208;-68
2022/03/12 07:20:47;;;;;;;23.85;7.78;;;;;;;;;;5072551;28;20212;-68
2022/03/12 07:23:14;;;;;;;23.65;8.20;;;;;;;;;;5072044;28;20213;-68
2022/03/12 07:25:42;;;;;;;23.33;8.40;;;;;;;;;;5072222;28;20211;-68
2022/03/12 07:28:11;;;;;;;23.02;6.47;;;;;;;;;;5072068;28;20215;-68
2022/03/12 07:30:40;;;;;;;24.35;7.50;;;;;;;;;;5071889;28;20204;-70
2022/03/12 07:33:09;;;;;;;22.02;6.05;;;;;;;;;;5071912;28;20208;-70
2022/03/12 07:35:38;;;;;;;23.75;7.07;;;;;;;;;;5072102;28;20210;-70
2022/03/12 07:38:05;;;;;;;22.25;6.80;;;;;;;;;;5071962;28;20208;-68
2022/03/12 07:40:33;;;;;;;21.58;6.88;;;;;;;;;;5071841;28;20198;-68
2022/03/12 07:43:00;;;;;;;22.80;6.22;;;;;;;;;;5071836;28;20301;-69
2022/03/12 07:45:28;;;;;;;30.05;9.13;;;;;;;;;;5072060;28;20212;-67
2022/03/12 07:47:56;;;;;;;20.15;6.38;;;;;;;;;;5071770;28;20213;-70
2022/03/12 07:50:26;;;;;;;21.00;5.88;;;;;;;;;;5071742;28;20209;-69
2022/03/12 07:52:54;;;;;;;26.17;8.80;;;;;;;;;;5071489;28;20589;-68
2022/03/12 07:55:22;;;;;;;26.67;7.75;;;;;;;;;;5071183;28;20236;-68
2022/03/12 07:57:50;;;;;;;23.55;6.93;;;;;;;;;;5071597;28;20323;-68
2022/03/12 08:00:18;;;;;;;21.13;6.45;;;;;;;;;;5071321;28;20693;-68
2022/03/12 08:02:46;;;;;;;32.50;8.23;;;;;;;;;;5071493;28;20221;-68
2022/03/12 08:05:16;;;;;;;23.05;7.80;;;;;;;;;;5071160;28;20267;-68
2022/03/12 08:07:43;;;;;;;23.73;8.13;;;;;;;;;;5071313;28;20206;-68
2022/03/12 08:10:12;;;;;;;27.00;9.57;;;;;;;;;;5071421;28;20819;-69
2022/03/12 08:12:39;;;;;;;25.80;8.93;;;;;;;;;;5071107;28;20973;-69
2022/03/12 08:15:08;;;;;;;32.53;11.57;;;;;;;;;;5070793;28;20482;-68
2022/03/12 08:17:36;;;;;;;24.50;8.30;;;;;;;;;;5071106;28;20453;-69
2022/03/12 08:20:05;;;;;;;26.90;8.47;;;;;;;;;;5071154;28;20464;-68
2022/03/12 08:22:33;;;;;;;21.93;6.57;;;;;;;;;;5064888;28;20450;-68
2022/03/12 08:25:01;;;;;;;21.00;7.00;;;;;;;;;;5070997;28;20457;-69
2022/03/12 08:27:28;;;;;;;22.47;6.67;;;;;;;;;;5071034;28;20523;-68
2022/03/12 08:29:56;;;;;;;25.15;6.53;;;;;;;;;;5070944;28;20891;-68
2022/03/12 08:32:23;;;;;;;21.15;6.38;;;;;;;;;;5070969;28;20242;-67
2022/03/12 08:34:51;;;;;;;31.00;9.63;;;;;;;;;;5070657;28;20291;-69
2022/03/12 08:37:18;;;;;;;23.23;6.75;;;;;;;;;;5070753;28;20204;-68
2022/03/12 08:39:47;;;;;;;21.60;6.38;;;;;;;;;;5070745;28;20205;-69
2022/03/12 08:42:14;;;;;;;21.40;5.80;;;;;;;;;;5070871;28;20212;-68
2022/03/12 08:44:43;;;;;;;24.42;6.57;;;;;;;;;;5070478;28;20209;-71
2022/03/12 08:47:11;;;;;;;23.65;7.00;;;;;;;;;;5070560;28;20219;-69
2022/03/12 08:49:38;;;;;;;20.27;5.80;;;;;;;;;;5070598;28;20208;-68
2022/03/12 08:52:06;;;;;;;26.60;8.20;;;;;;;;;;5070541;28;20217;-68
2022/03/12 08:54:34;;;;;;;29.73;8.43;;;;;;;;;;5070556;28;20225;-70
2022/03/12 08:57:02;;;;;;;24.98;7.43;;;;;;;;;;5070508;28;20210;-69
2022/03/12 08:59:30;;;;;;;24.27;7.18;;;;;;;;;;5070480;28;20222;-68
2022/03/12 09:01:59;;;;;;;27.40;7.65;;;;;;;;;;5070488;28;20211;-68
2022/03/12 09:04:27;;;;;;;20.50;6.70;;;;;;;;;;5064052;28;20217;-71
2022/03/12 09:06:54;;;;;;;24.67;8.02;;;;;;;;;;5070593;28;20234;-70
2022/03/12 09:09:22;;;;;;;25.10;7.50;;;;;;;;;;5070384;28;20229;-68
2022/03/12 09:11:49;;;;;;;24.33;6.93;;;;;;;;;;5070441;28;20204;-70
2022/03/12 09:14:18;;;;;;;23.20;6.50;;;;;;;;;;5070134;28;20237;-70
2022/03/12 09:16:46;;;;;;;26.90;6.60;;;;;;;;;;5070513;28;20640;-69
2022/03/12 09:19:13;;;;;;;22.25;6.20;;;;;;;;;;5070011;28;20669;-69
2022/03/12 09:21:42;;;;;;;17.38;5.10;;;;;;;;;;5070294;28;20219;-68
2022/03/12 09:24:11;;;;;;;22.40;6.20;;;;;;;;;;5070323;28;20570;-68
2022/03/12 09:26:39;;;;;;;21.05;5.90;;;;;;;;;;5063727;28;20216;-68
2022/03/12 09:29:06;;;;;;;21.98;5.68;;;;;;;;;;5069935;28;20667;-70
2022/03/12 09:31:35;;;;;;;21.30;5.50;;;;;;;;;;5070464;28;20214;-68
2022/03/12 09:34:02;;;;;;;19.55;5.43;;;;;;;;;;5070118;28;20294;-68
2022/03/12 09:36:31;;;;;;;20.85;6.20;;;;;;;;;;5070484;28;20572;-68
2022/03/12 09:38:59;;;;;;;20.58;5.03;;;;;;;;;;5070119;28;20631;-68
2022/03/12 09:41:27;;;;;;;19.33;5.00;;;;;;;;;;5070063;28;20208;-68
2022/03/12 09:43:54;;;;;;;24.65;6.40;;;;;;;;;;5070178;28;20208;-68
2022/03/12 09:46:21;;;;;;;22.10;6.38;;;;;;;;;;5070419;28;20208;-68
2022/03/12 09:48:50;;;;;;;18.73;4.15;;;;;;;;;;5063075;28;20208;-69
2022/03/12 09:51:18;;;;;;;22.63;5.60;;;;;;;;;;5070038;28;20215;-68
2022/03/12 09:53:46;;;;;;;21.33;5.95;;;;;;;;;;5069926;28;20208;-69
2022/03/12 09:56:13;;;;;;;19.80;5.90;;;;;;;;;;5072747;28;20287;-69
2022/03/12 09:58:41;;;;;;;22.35;5.85;;;;;;;;;;5073960;28;20209;-69
2022/03/12 10:01:11;;;;;;;20.80;5.63;;;;;;;;;;5073627;28;20282;-68
2022/03/12 10:03:41;;;;;;;25.17;5.00;;;;;;;;;;5073930;28;20213;-69
2022/03/12 10:06:10;;;;;;;16.38;2.95;;;;;;;;;;5073357;28;20750;-68
2022/03/12 10:08:38;;;;;;;22.58;4.60;;;;;;;;;;5073566;28;20742;-68
2022/03/12 10:11:06;;;;;;;20.13;5.28;;;;;;;;;;5073573;28;20208;-69
2022/03/12 10:13:33;;;;;;;14.93;2.40;;;;;;;;;;5073540;28;20269;-68
2022/03/12 10:16:01;;;;;;;17.38;3.60;;;;;;;;;;5073506;28;20236;-68
2022/03/12 10:18:29;;;;;;;16.10;3.92;;;;;;;;;;5073710;28;20239;-68
2022/03/12 10:20:57;;;;;;;16.67;4.05;;;;;;;;;;5073461;28;20216;-69
2022/03/12 10:23:26;;;;;;;17.25;4.32;;;;;;;;;;5073736;28;20266;-69
2022/03/12 10:25:54;;;;;;;20.17;5.07;;;;;;;;;;5073601;28;20204;-68
2022/03/12 10:28:22;;;;;;;21.77;4.80;;;;;;;;;;5073477;28;20204;-69
2022/03/12 10:30:49;;;;;;;16.75;3.13;;;;;;;;;;5073333;28;20201;-68
2022/03/12 10:33:23;;;;;;;18.02;4.43;;;;;;;;;;5073040;28;20204;-68
2022/03/12 10:35:51;;;;;;;17.35;3.90;;;;;;;;;;5073373;28;20290;-68
2022/03/12 10:38:19;;;;;;;18.80;4.35;;;;;;;;;;5073348;28;20205;-69
2022/03/12 10:40:47;;;;;;;18.80;3.97;;;;;;;;;;5073107;28;20301;-69
2022/03/12 10:43:15;;;;;;;18.88;4.28;;;;;;;;;;5072851;28;20615;-69
2022/03/12 10:45:46;;;;;;;18.55;4.50;;;;;;;;;;5073052;28;20208;-69
2022/03/12 10:48:17;;;;;;;18.35;5.10;;;;;;;;;;5072973;28;20207;-69
2022/03/12 10:50:45;;;;;;;15.90;4.30;;;;;;;;;;5072970;28;20253;-69
2022/03/12 10:53:13;;;;;;;16.60;4.10;;;;;;;;;;5072922;28;20206;-69
2022/03/12 10:55:42;;;;;;;19.00;5.53;;;;;;;;;;5072803;28;20239;-70
2022/03/12 10:58:12;;;;;;;17.27;4.10;;;;;;;;;;5072781;28;20200;-71
2022/03/12 11:00:40;;;;;;;19.50;5.55;;;;;;;;;;5072960;28;20213;-69
2022/03/12 11:03:12;;;;;;;22.35;6.47;;;;;;;;;;5065890;28;20204;-68
2022/03/12 11:05:42;;;;;;;21.77;5.15;;;;;;;;;;5071902;28;20247;-68
2022/03/12 11:08:15;;;;;;;19.83;4.32;;;;;;;;;;5072870;28;20216;-68
2022/03/12 11:10:49;;;;;;;15.75;4.03;;;;;;;;;;5072534;28;20292;-69
2022/03/12 11:13:31;;;;;;;18.40;4.30;;;;;;;;;;5072408;28;20212;-68
2022/03/12 11:16:12;;;;;;;19.27;3.83;;;;;;;;;;5065818;28;20240;-69
2022/03/12 11:18:47;;;;;;;16.55;4.28;;;;;;;;;;5072442;28;20673;-69
2022/03/12 11:21:16;;;;;;;21.88;4.90;;;;;;;;;;5072252;28;20227;-69
2022/03/12 11:23:43;;;;;;;16.88;4.65;;;;;;;;;;5072253;28;20678;-69
2022/03/12 11:26:11;;;;;;;18.15;4.07;;;;;;;;;;5072167;28;20212;-69
2022/03/12 11:28:41;;;;;;;17.35;4.43;;;;;;;;;;5072321;28;20231;-69
2022/03/12 11:31:10;;;;;;;17.75;4.95;;;;;;;;;;5071925;28;20744;-69
2022/03/12 11:33:38;;;;;;;19.73;4.53;;;;;;;;;;5072005;28;20200;-69
2022/03/12 11:36:09;;;;;;;16.90;3.90;;;;;;;;;;5071878;28;20351;-68
2022/03/12 11:38:36;;;;;;;20.85;4.50;;;;;;;;;;5072364;28;20210;-69
2022/03/12 11:41:05;;;;;;;21.65;4.90;;;;;;;;;;5071631;28;20213;-70
2022/03/12 11:43:33;;;;;;;18.65;5.53;;;;;;;;;;5071950;28;20398;-68
2022/03/12 11:46:03;;;;;;;21.40;4.75;;;;;;;;;;5071754;28;20209;-68
2022/03/12 11:48:31;;;;;;;23.83;6.03;;;;;;;;;;5071833;28;20262;-68
2022/03/12 11:51:02;;;;;;;17.85;4.72;;;;;;;;;;5071980;28;20204;-68
2022/03/12 11:53:36;;;;;;;21.48;4.70;;;;;;;;;;5071941;28;20236;-68
2022/03/12 11:56:05;;;;;;;19.15;4.93;;;;;;;;;;5071908;28;20249;-68
2022/03/12 11:58:33;;;;;;;15.45;3.90;;;;;;;;;;5071685;28;20287;-68
2022/03/12 12:01:02;;;;;;;17.50;4.32;;;;;;;;;;5071151;28;20212;-69
2022/03/12 12:03:29;;;;;;;16.13;3.70;;;;;;;;;;5071590;28;20227;-69
2022/03/12 12:05:56;;;;;;;24.65;5.75;;;;;;;;;;5071282;28;20240;-68
2022/03/12 12:08:25;;;;;;;17.25;3.83;;;;;;;;;;5071514;28;20202;-69
2022/03/12 12:11:01;;;;;;;18.48;4.35;;;;;;;;;;5071242;28;20211;-69
2022/03/12 12:13:28;;;;;;;17.42;4.18;;;;;;;;;;5071175;28;20673;-69
2022/03/12 12:15:58;;;;;;;19.33;4.88;;;;;;;;;;5071317;28;20244;-68
2022/03/12 12:18:27;;;;;;;16.08;3.38;;;;;;;;;;5070374;28;20213;-69
2022/03/12 12:20:54;;;;;;;17.55;4.68;;;;;;;;;;5064641;28;20217;-68
2022/03/12 12:23:22;;;;;;;16.90;4.03;;;;;;;;;;5070838;28;20209;-68
2022/03/12 12:25:50;;;;;;;15.52;3.88;;;;;;;;;;5071072;28;20213;-69
2022/03/12 12:28:19;;;;;;;18.00;4.50;;;;;;;;;;5071063;28;20639;-69
2022/03/12 12:30:47;;;;;;;22.08;5.05;;;;;;;;;;5071070;28;20204;-69
2022/03/12 12:33:16;;;;;;;24.27;6.18;;;;;;;;;;5070899;28;20208;-69
2022/03/12 12:35:45;;;;;;;16.63;3.72;;;;;;;;;;5070717;28;20232;-69
2022/03/12 12:38:13;;;;;;;19.70;5.25;;;;;;;;;;5070960;28;20210;-69
2022/03/12 12:40:43;;;;;;;19.15;4.22;;;;;;;;;;5070787;28;20208;-69
2022/03/12 12:43:13;;;;;;;15.77;3.30;;;;;;;;;;5070844;28;20219;-68
2022/03/12 12:45:59;;;;;;;18.67;5.72;;;;;;;;;;5070913;28;20262;-69
2022/03/12 12:48:29;;;;;;;16.33;3.75;;;;;;;;;;5070842;28;20670;-69
2022/03/12 12:51:12;;;;;;;16.73;3.75;;;;;;;;;;5070578;28;20239;-69
2022/03/12 12:53:40;;;;;;;19.20;4.10;;;;;;;;;;5070692;28;20235;-69
2022/03/12 12:56:24;;;;;;;18.85;5.20;;;;;;;;;;5070487;28;20228;-69
2022/03/12 12:59:05;;;;;;;19.05;5.10;;;;;;;;;;5070612;28;20212;-69
2022/03/12 13:01:35;;;;;;;14.98;3.30;;;;;;;;;;5070577;28;20205;-69
2022/03/12 13:04:04;;;;;;;17.95;4.13;;;;;;;;;;5070784;28;20297;-69
2022/03/12 13:06:45;;;;;;;25.02;4.47;;;;;;;;;;5070485;28;20244;-70
2022/03/12 13:09:14;;;;;;;14.73;2.95;;;;;;;;;;5070269;28;20205;-68
2022/03/12 13:11:51;;;;;;;16.00;3.20;;;;;;;;;;5070417;28;20216;-69
2022/03/12 13:14:19;;;;;;;16.38;3.45;;;;;;;;;;5070876;28;20391;-68
2022/03/12 13:16:50;;;;;;;17.52;3.60;;;;;;;;;;5070624;28;20612;-68
2022/03/12 13:19:36;;;;;;;16.85;4.15;;;;;;;;;;5070141;28;20204;-68
2022/03/12 13:22:06;;;;;;;13.63;2.75;;;;;;;;;;5070474;28;20585;-68
2022/03/12 13:24:43;;;;;;;14.80;3.30;;;;;;;;;;5070332;28;20583;-68
2022/03/12 13:27:17;;;;;;;16.90;4.20;;;;;;;;;;5070359;28;20206;-68
2022/03/12 13:29:44;;;;;;;17.33;3.85;;;;;;;;;;5072548;28;20201;-69
2022/03/12 13:32:18;;;;;;;16.08;3.80;;;;;;;;;;5074560;28;20227;-69
2022/03/12 13:34:46;;;;;;;16.63;4.03;;;;;;;;;;5074227;28;20209;-68
2022/03/12 13:37:15;;;;;;;19.52;4.93;;;;;;;;;;5074721;28;20732;-69
2022/03/12 13:39:43;;;;;;;17.85;4.15;;;;;;;;;;5074232;28;20291;-68
2022/03/12 13:42:11;;;;;;;21.58;4.57;;;;;;;;;;5074049;28;20201;-68
2022/03/12 13:44:38;;;;;;;16.40;3.58;;;;;;;;;;5074414;28;20204;-68
2022/03/12 13:47:06;;;;;;;17.80;3.80;;;;;;;;;;5073837;28;20215;-69
2022/03/12 13:49:35;;;;;;;20.30;4.60;;;;;;;;;;5074266;28;20208;-69
2022/03/12 13:52:04;;;;;;;17.38;3.78;;;;;;;;;;5074036;28;20744;-69
2022/03/12 13:54:32;;;;;;;19.52;4.80;;;;;;;;;;5074014;28;20219;-70
2022/03/12 13:57:00;;;;;;;19.88;4.47;;;;;;;;;;5073758;28;20266;-69
2022/03/12 13:59:30;;;;;;;15.40;3.38;;;;;;;;;;5073838;28;20292;-69
2022/03/12 14:02:00;;;;;;;17.45;4.75;;;;;;;;;;5073638;28;20270;-68
2022/03/12 14:04:28;;;;;;;20.02;5.10;;;;;;;;;;5073495;28;20262;-69
2022/03/12 14:06:56;;;;;;;18.95;4.32;;;;;;;;;;5073577;28;20229;-69
2022/03/12 14:09:25;;;;;;;15.65;3.78;;;;;;;;;;5073527;28;20200;-68
2022/03/12 14:11:56;;;;;;;17.55;4.10;;;;;;;;;;5073685;28;20201;-69
2022/03/12 14:14:25;;;;;;;18.67;4.25;;;;;;;;;;5073765;28;20208;-68
2022/03/12 14:16:56;;;;;;;16.30;3.65;;;;;;;;;;5073657;28;20312;-68
2022/03/12 14:19:24;;;;;;;17.83;4.40;;;;;;;;;;5073465;28;20750;-68
2022/03/12 14:21:56;;;;;;;16.60;3.17;;;;;;;;;;5073681;28;20585;-68
2022/03/12 14:24:25;;;;;;;15.18;3.30;;;;;;;;;;5073794;28;20205;-69
2022/03/12 14:26:55;;;;;;;16.88;3.40;;;;;;;;;;5073236;28;20382;-69
2022/03/12 14:29:25;;;;;;;18.23;5.13;;;;;;;;;;5073339;28;20212;-69
2022/03/12 14:31:53;;;;;;;18.15;3.55;;;;;;;;;;5073283;28;20299;-68
2022/03/12 14:34:20;;;;;;;15.95;3.85;;;;;;;;;;5073668;28;20209;-69
2022/03/12 14:36:48;;;;;;;43.92;11.70;;;;;;;;;;5073198;28;20610;-68
2022/03/12 14:39:16;;;;;;;20.73;5.28;;;;;;;;;;5073060;28;20275;-69